Time,TemperatureF,DewpointF,PressureIn,WindDirection,WindDirectionDegrees,WindSpeedMPH,WindSpeedGustMPH,Humidity,HourlyPrecipIn,Conditions,Clouds,dailyrainin,SoftwareType,DateUTC
2013-11-26 00:02:00,26.4,1.9,27.82,NE,40,3.6,3.6,34,0.00,,---,0.00,VWS V14.01,2013-11-26 08:02:00,
2013-11-26 00:07:00,26.2,1.7,27.82,NE,40,3.6,3.6,34,0.00,,---,0.00,VWS V14.01,2013-11-26 08:07:00,
2013-11-26 00:12:00,26.1,1.5,27.82,NE,40,3.6,3.6,34,0.00,,---,0.00,VWS V14.01,2013-11-26 08:12:00,
2013-11-26 00:17:00,25.9,1.4,27.82,NE,40,3.6,3.6,34,0.00,,---,0.00,VWS V14.01,2013-11-26 08:17:00,
2013-11-26 00:22:00,25.7,1.2,27.82,NE,40,3.6,3.6,34,0.00,,---,0.00,VWS V14.01,2013-11-26 08:22:00,
2013-11-26 00:27:00,25.5,1.1,27.82,NE,40,3.6,3.6,34,0.00,,---,0.00,VWS V14.01,2013-11-26 08:27:00,
2013-11-26 00:32:00,25.3,0.9,27.82,NE,40,3.6,3.6,34,0.00,,---,0.00,VWS V14.01,2013-11-26 08:32:00,
2013-11-26 00:37:00,25.2,0.8,27.82,NE,40,3.6,3.6,34,0.00,,---,0.00,VWS V14.01,2013-11-26 08:37:00,
2013-11-26 00:42:00,25.0,0.6,27.82,NE,40,3.6,3.6,34,0.00,,---,0.00,VWS V14.01,2013-11-26 08:42:00,
2013-11-26 00:47:00,24.8,1.0,27.82,NE,40,3.6,3.6,35,0.00,,---,0.00,VWS V14.01,2013-11-26 08:47:00,
2013-11-26 00:52:00,24.8,1.0,27.82,NE,40,3.6,3.6,35,0.00,,---,0.00,VWS V14.01,2013-11-26 08:52:00,
2013-11-26 00:57:00,24.6,0.9,27.82,NE,40,3.6,3.6,35,0.00,,---,0.00,VWS V14.01,2013-11-26 08:57:00,
2013-11-26 01:02:00,24.6,0.9,27.79,NE,40,3.6,3.6,35,0.00,,---,0.00,VWS V14.01,2013-11-26 09:02:00,
2013-11-26 01:07:00,24.4,1.3,27.79,NE,40,3.6,3.6,36,0.00,,---,0.00,VWS V14.01,2013-11-26 09:07:00,
2013-11-26 01:12:00,24.4,1.3,27.79,NE,40,3.6,3.6,36,0.00,,---,0.00,VWS V14.01,2013-11-26 09:12:00,
2013-11-26 01:17:00,24.4,1.9,27.82,NE,40,3.6,3.6,37,0.00,,---,0.00,VWS V14.01,2013-11-26 09:17:00,
2013-11-26 01:22:00,24.6,2.1,27.82,NE,40,3.6,3.6,37,0.00,,---,0.00,VWS V14.01,2013-11-26 09:22:00,
2013-11-26 01:27:00,24.6,2.1,27.82,NE,40,3.6,3.6,37,0.00,,---,0.00,VWS V14.01,2013-11-26 09:27:00,
2013-11-26 01:32:00,24.6,2.1,27.82,NE,40,3.6,3.6,37,0.00,,---,0.00,VWS V14.01,2013-11-26 09:32:00,
2013-11-26 01:37:00,24.8,2.8,27.82,NE,40,3.6,3.6,38,0.00,,---,0.00,VWS V14.01,2013-11-26 09:37:00,
2013-11-26 01:42:00,24.8,2.8,27.82,NE,40,3.6,3.6,38,0.00,,---,0.00,VWS V14.01,2013-11-26 09:42:00,
2013-11-26 01:47:00,24.8,2.8,27.82,NE,40,3.6,3.6,38,0.00,,---,0.00,VWS V14.01,2013-11-26 09:47:00,
2013-11-26 01:52:00,24.8,3.4,27.82,NE,40,3.6,3.6,39,0.00,,---,0.00,VWS V14.01,2013-11-26 09:52:00,
2013-11-26 01:57:00,24.8,3.4,27.82,NE,40,3.6,3.6,39,0.00,,---,0.00,VWS V14.01,2013-11-26 09:57:00,
2013-11-26 02:02:00,24.8,3.4,27.82,NE,40,3.6,3.6,39,0.00,,---,0.00,VWS V14.01,2013-11-26 10:02:00,
2013-11-26 02:07:00,24.6,3.2,27.82,NE,40,3.6,3.6,39,0.00,,---,0.00,VWS V14.01,2013-11-26 10:07:00,
2013-11-26 02:12:00,24.4,3.0,27.82,NE,40,3.6,3.6,39,0.00,,---,0.00,VWS V14.01,2013-11-26 10:12:00,
2013-11-26 02:17:00,24.1,2.2,27.82,NE,40,3.6,3.6,38,0.00,,---,0.00,VWS V14.01,2013-11-26 10:17:00,
2013-11-26 02:22:00,23.7,1.8,27.82,NE,40,3.6,3.6,38,0.00,,---,0.00,VWS V14.01,2013-11-26 10:22:00,
2013-11-26 02:27:00,23.5,1.7,27.82,NE,40,3.6,3.6,38,0.00,,---,0.00,VWS V14.01,2013-11-26 10:27:00,
2013-11-26 02:32:00,23.4,2.1,27.82,NE,40,3.6,3.6,39,0.00,,---,0.00,VWS V14.01,2013-11-26 10:32:00,
2013-11-26 02:37:00,23.2,1.9,27.82,NE,40,3.6,3.6,39,0.00,,---,0.00,VWS V14.01,2013-11-26 10:37:00,
2013-11-26 02:42:00,23.0,1.8,27.82,NE,40,3.6,3.6,39,0.00,,---,0.00,VWS V14.01,2013-11-26 10:42:00,
2013-11-26 02:47:00,23.0,2.3,27.82,NE,40,3.6,3.6,40,0.00,,---,0.00,VWS V14.01,2013-11-26 10:47:00,
2013-11-26 02:52:00,22.8,2.1,27.82,NE,40,3.6,3.6,40,0.00,,---,0.00,VWS V14.01,2013-11-26 10:52:00,
2013-11-26 02:57:00,22.8,2.1,27.82,NE,40,3.6,3.6,40,0.00,,---,0.00,VWS V14.01,2013-11-26 10:57:00,
2013-11-26 03:02:00,22.8,2.7,27.82,NE,40,3.6,3.6,41,0.00,,---,0.00,VWS V14.01,2013-11-26 11:02:00,
2013-11-26 03:06:00,22.8,2.7,27.82,NE,40,3.6,3.6,41,0.00,,---,0.00,VWS V14.01,2013-11-26 11:06:00,
2013-11-26 03:11:00,22.8,2.7,27.82,NE,40,3.6,3.6,41,0.00,,---,0.00,VWS V14.01,2013-11-26 11:11:00,
2013-11-26 03:16:00,22.8,2.7,27.82,NE,40,3.6,3.6,41,0.00,,---,0.00,VWS V14.01,2013-11-26 11:16:00,
2013-11-26 03:21:00,22.6,2.5,27.82,NE,40,3.6,3.6,41,0.00,,---,0.00,VWS V14.01,2013-11-26 11:21:00,
2013-11-26 03:26:00,22.6,3.0,27.82,NE,40,3.6,3.6,42,0.00,,---,0.00,VWS V14.01,2013-11-26 11:26:00,
2013-11-26 03:31:00,22.8,3.2,27.79,NE,40,3.6,3.6,42,0.00,,---,0.00,VWS V14.01,2013-11-26 11:31:00,
2013-11-26 03:36:00,22.8,3.2,27.79,NE,40,3.6,3.6,42,0.00,,---,0.00,VWS V14.01,2013-11-26 11:36:00,
2013-11-26 03:41:00,22.8,3.2,27.79,NE,40,3.6,3.6,42,0.00,,---,0.00,VWS V14.01,2013-11-26 11:41:00,
2013-11-26 03:46:00,22.8,3.2,27.79,NE,40,3.6,3.6,42,0.00,,---,0.00,VWS V14.01,2013-11-26 11:46:00,
2013-11-26 03:51:00,22.6,3.0,27.79,NE,40,3.6,3.6,42,0.00,,---,0.00,VWS V14.01,2013-11-26 11:51:00,
2013-11-26 03:56:00,22.5,2.8,27.79,NE,40,3.6,3.6,42,0.00,,---,0.00,VWS V14.01,2013-11-26 11:56:00,
2013-11-26 04:01:00,22.3,2.7,27.79,NE,40,3.6,3.6,42,0.00,,---,0.00,VWS V14.01,2013-11-26 12:01:00,
2013-11-26 04:06:00,22.1,2.5,27.79,NE,40,3.6,3.6,42,0.00,,---,0.00,VWS V14.01,2013-11-26 12:06:00,
2013-11-26 04:11:00,22.1,2.5,27.79,NE,40,3.6,3.6,42,0.00,,---,0.00,VWS V14.01,2013-11-26 12:11:00,
2013-11-26 04:16:00,21.9,2.4,27.79,NE,40,3.6,3.6,42,0.00,,---,0.00,VWS V14.01,2013-11-26 12:16:00,
2013-11-26 04:21:00,21.9,2.4,27.79,NE,40,3.6,3.6,42,0.00,,---,0.00,VWS V14.01,2013-11-26 12:21:00,
2013-11-26 04:26:00,21.9,2.4,27.79,NE,40,3.6,3.6,42,0.00,,---,0.00,VWS V14.01,2013-11-26 12:26:00,
2013-11-26 04:31:00,21.7,2.2,27.79,NE,40,3.6,3.6,42,0.00,,---,0.00,VWS V14.01,2013-11-26 12:31:00,
2013-11-26 04:36:00,21.6,2.0,27.79,NE,40,3.6,3.6,42,0.00,,---,0.00,VWS V14.01,2013-11-26 12:36:00,
2013-11-26 04:41:00,21.4,1.9,27.79,NE,40,3.6,3.6,42,0.00,,---,0.00,VWS V14.01,2013-11-26 12:41:00,
2013-11-26 04:46:00,21.4,1.9,27.79,NE,40,3.6,3.6,42,0.00,,---,0.00,VWS V14.01,2013-11-26 12:46:00,
2013-11-26 04:51:00,21.6,2.0,27.79,NE,40,3.6,3.6,42,0.00,,---,0.00,VWS V14.01,2013-11-26 12:51:00,
2013-11-26 04:56:00,21.7,2.2,27.79,NE,40,3.6,3.6,42,0.00,,---,0.00,VWS V14.01,2013-11-26 12:56:00,
2013-11-26 05:01:00,21.7,2.7,27.79,NE,40,3.6,3.6,43,0.00,,---,0.00,VWS V14.01,2013-11-26 13:01:00,
2013-11-26 05:07:00,21.9,2.9,27.79,NE,40,3.6,3.6,43,0.00,,---,0.00,VWS V14.01,2013-11-26 13:07:00,
2013-11-26 05:12:00,21.9,2.9,27.79,NE,40,3.6,3.6,43,0.00,,---,0.00,VWS V14.01,2013-11-26 13:12:00,
2013-11-26 05:17:00,21.9,2.9,27.79,NE,40,3.6,3.6,43,0.00,,---,0.00,VWS V14.01,2013-11-26 13:17:00,
2013-11-26 05:22:00,21.9,2.9,27.79,NE,40,3.6,3.6,43,0.00,,---,0.00,VWS V14.01,2013-11-26 13:22:00,
2013-11-26 05:27:00,22.1,3.0,27.79,NE,40,3.6,3.6,43,0.00,,---,0.00,VWS V14.01,2013-11-26 13:27:00,
2013-11-26 05:32:00,22.1,3.0,27.79,NE,40,3.6,3.6,43,0.00,,---,0.00,VWS V14.01,2013-11-26 13:32:00,
2013-11-26 05:37:00,22.3,3.2,27.79,NE,40,3.6,3.6,43,0.00,,---,0.00,VWS V14.01,2013-11-26 13:37:00,
2013-11-26 05:42:00,22.3,3.2,27.79,NE,40,3.6,3.6,43,0.00,,---,0.00,VWS V14.01,2013-11-26 13:42:00,
2013-11-26 05:47:00,22.1,3.0,27.79,NE,40,3.6,3.6,43,0.00,,---,0.00,VWS V14.01,2013-11-26 13:47:00,
2013-11-26 05:52:00,21.9,2.9,27.79,NE,40,3.6,3.6,43,0.00,,---,0.00,VWS V14.01,2013-11-26 13:52:00,
2013-11-26 05:57:00,21.9,2.9,27.79,NE,40,3.6,3.6,43,0.00,,---,0.00,VWS V14.01,2013-11-26 13:57:00,
2013-11-26 06:02:00,21.9,2.9,27.79,NE,40,3.6,3.6,43,0.00,,---,0.00,VWS V14.01,2013-11-26 14:02:00,
2013-11-26 06:07:00,21.9,2.9,27.79,NE,40,3.6,3.6,43,0.00,,---,0.00,VWS V14.01,2013-11-26 14:07:00,
2013-11-26 06:12:00,22.1,3.0,27.79,NE,40,3.6,3.6,43,0.00,,---,0.00,VWS V14.01,2013-11-26 14:12:00,
2013-11-26 06:17:00,22.1,3.0,27.79,NE,40,3.6,3.6,43,0.00,,---,0.00,VWS V14.01,2013-11-26 14:17:00,
2013-11-26 06:22:00,22.1,3.0,27.79,NE,40,3.6,3.6,43,0.00,,---,0.00,VWS V14.01,2013-11-26 14:22:00,
2013-11-26 06:27:00,21.9,2.9,27.79,NE,40,3.6,3.6,43,0.00,,---,0.00,VWS V14.01,2013-11-26 14:27:00,
2013-11-26 06:32:00,21.9,2.9,27.76,NE,40,3.6,3.6,43,0.00,,---,0.00,VWS V14.01,2013-11-26 14:32:00,
2013-11-26 06:37:00,21.9,2.9,27.76,NE,40,3.6,3.6,43,0.00,,---,0.00,VWS V14.01,2013-11-26 14:37:00,
2013-11-26 06:42:00,21.7,2.7,27.76,NE,40,3.6,3.6,43,0.00,,---,0.00,VWS V14.01,2013-11-26 14:42:00,
2013-11-26 06:46:00,21.7,2.7,27.76,NE,40,3.6,3.6,43,0.00,,---,0.00,VWS V14.01,2013-11-26 14:46:00,
2013-11-26 06:51:00,21.7,2.7,27.76,NE,40,3.6,3.6,43,0.00,,---,0.00,VWS V14.01,2013-11-26 14:51:00,
2013-11-26 06:56:00,21.6,2.5,27.76,NE,40,3.6,3.6,43,0.00,,---,0.00,VWS V14.01,2013-11-26 14:56:00,
2013-11-26 07:01:00,21.6,2.5,27.76,NE,40,3.6,3.6,43,0.00,,---,0.00,VWS V14.01,2013-11-26 15:01:00,
2013-11-26 07:06:00,21.6,2.5,27.76,NE,40,3.6,3.6,43,0.00,,---,0.00,VWS V14.01,2013-11-26 15:06:00,
2013-11-26 07:12:00,21.6,2.5,27.76,NE,40,3.6,3.6,43,0.00,,---,0.00,VWS V14.01,2013-11-26 15:12:00,
2013-11-26 07:17:00,21.6,2.5,27.76,NE,40,3.6,3.6,43,0.00,,---,0.00,VWS V14.01,2013-11-26 15:17:00,
2013-11-26 07:22:00,21.6,3.0,27.76,NE,40,3.6,3.6,44,0.00,,---,0.00,VWS V14.01,2013-11-26 15:22:00,
2013-11-26 07:27:00,21.4,2.4,27.76,NE,40,3.6,3.6,43,0.00,,---,0.00,VWS V14.01,2013-11-26 15:27:00,
2013-11-26 07:32:00,21.4,2.9,27.76,NE,40,3.6,3.6,44,0.00,,---,0.00,VWS V14.01,2013-11-26 15:32:00,
2013-11-26 07:37:00,21.4,2.9,27.76,NE,40,3.6,3.6,44,0.00,,---,0.00,VWS V14.01,2013-11-26 15:37:00,
2013-11-26 07:42:00,21.6,3.0,27.76,NE,40,3.6,3.6,44,0.00,,---,0.00,VWS V14.01,2013-11-26 15:42:00,
2013-11-26 07:47:00,21.7,3.2,27.76,NE,40,3.6,3.6,44,0.00,,---,0.00,VWS V14.01,2013-11-26 15:47:00,
2013-11-26 07:52:00,21.9,3.4,27.76,NE,40,3.6,3.6,44,0.00,,---,0.00,VWS V14.01,2013-11-26 15:52:00,
2013-11-26 07:57:00,21.9,3.4,27.76,NE,40,3.6,3.6,44,0.00,,---,0.00,VWS V14.01,2013-11-26 15:57:00,
2013-11-26 08:02:00,22.3,3.7,27.76,NE,40,3.6,3.6,44,0.00,,---,0.00,VWS V14.01,2013-11-26 16:02:00,
2013-11-26 08:07:00,22.5,3.9,27.76,NE,40,3.6,3.6,44,0.00,,---,0.00,VWS V14.01,2013-11-26 16:07:00,
2013-11-26 08:12:00,22.8,4.2,27.76,NE,40,3.6,3.6,44,0.00,,---,0.00,VWS V14.01,2013-11-26 16:12:00,
2013-11-26 08:17:00,23.0,4.3,27.76,NE,40,3.6,3.6,44,0.00,,---,0.00,VWS V14.01,2013-11-26 16:17:00,
2013-11-26 08:22:00,23.4,4.7,27.76,NE,40,3.6,3.6,44,0.00,,---,0.00,VWS V14.01,2013-11-26 16:22:00,
2013-11-26 08:27:00,23.9,5.7,27.76,NE,40,3.6,3.6,45,0.00,,---,0.00,VWS V14.01,2013-11-26 16:27:00,
2013-11-26 08:32:00,24.4,6.2,27.76,NE,40,3.6,3.6,45,0.00,,---,0.00,VWS V14.01,2013-11-26 16:32:00,
2013-11-26 08:37:00,24.6,6.3,27.76,NE,40,3.6,3.6,45,0.00,,---,0.00,VWS V14.01,2013-11-26 16:37:00,
2013-11-26 08:42:00,25.0,6.2,27.76,NE,40,3.6,3.6,44,0.00,,---,0.00,VWS V14.01,2013-11-26 16:42:00,
2013-11-26 08:47:00,25.3,6.5,27.76,NE,40,3.6,3.6,44,0.00,,---,0.00,VWS V14.01,2013-11-26 16:47:00,
2013-11-26 08:52:00,25.7,6.8,27.76,NE,40,3.6,3.6,44,0.00,,---,0.00,VWS V14.01,2013-11-26 16:52:00,
2013-11-26 08:57:00,26.1,7.2,27.76,NE,40,3.6,3.6,44,0.00,,---,0.00,VWS V14.01,2013-11-26 16:57:00,
2013-11-26 09:02:00,26.4,7.5,27.76,NE,40,3.6,3.6,44,0.00,,---,0.00,VWS V14.01,2013-11-26 17:02:00,
2013-11-26 09:07:00,26.8,7.8,27.76,NE,40,3.6,3.6,44,0.00,,---,0.00,VWS V14.01,2013-11-26 17:07:00,
2013-11-26 09:12:00,27.1,8.1,27.76,NE,40,3.6,3.6,44,0.00,,---,0.00,VWS V14.01,2013-11-26 17:12:00,
2013-11-26 09:17:00,27.5,8.5,27.76,NE,40,3.6,3.6,44,0.00,,---,0.00,VWS V14.01,2013-11-26 17:17:00,
2013-11-26 09:22:00,27.9,8.8,27.76,NE,40,3.6,3.6,44,0.00,,---,0.00,VWS V14.01,2013-11-26 17:22:00,
2013-11-26 09:27:00,28.0,8.9,27.76,North,353,3.6,3.6,44,0.00,,---,0.00,VWS V14.01,2013-11-26 17:27:00,
2013-11-26 09:32:00,28.2,9.1,27.76,North,353,3.6,3.6,44,0.00,,---,0.00,VWS V14.01,2013-11-26 17:32:00,
2013-11-26 09:37:00,28.2,9.1,27.76,North,353,3.6,3.6,44,0.00,,---,0.00,VWS V14.01,2013-11-26 17:37:00,
2013-11-26 09:42:00,28.2,8.6,27.76,North,353,3.6,3.6,43,0.00,,---,0.00,VWS V14.01,2013-11-26 17:42:00,
2013-11-26 09:47:00,28.4,8.8,27.76,North,353,3.6,3.6,43,0.00,,---,0.00,VWS V14.01,2013-11-26 17:47:00,
2013-11-26 09:52:00,28.4,8.8,27.76,North,353,3.6,3.6,43,0.00,,---,0.00,VWS V14.01,2013-11-26 17:52:00,
2013-11-26 09:57:00,28.6,8.9,27.76,North,353,3.6,3.6,43,0.00,,---,0.00,VWS V14.01,2013-11-26 17:57:00,
2013-11-26 10:02:00,28.6,8.9,27.76,North,353,3.6,3.6,43,0.00,,---,0.00,VWS V14.01,2013-11-26 18:02:00,
2013-11-26 10:07:00,28.8,9.1,27.76,North,353,3.6,3.6,43,0.00,,---,0.00,VWS V14.01,2013-11-26 18:07:00,
2013-11-26 10:12:00,29.1,9.4,27.76,North,353,3.6,3.6,43,0.00,,---,0.00,VWS V14.01,2013-11-26 18:12:00,
2013-11-26 10:17:00,29.5,9.2,27.76,North,353,3.6,3.6,42,0.00,,---,0.00,VWS V14.01,2013-11-26 18:17:00,
2013-11-26 10:21:00,29.7,9.4,27.76,North,353,3.6,3.6,42,0.00,,---,0.00,VWS V14.01,2013-11-26 18:21:00,
2013-11-26 10:26:00,30.0,9.7,27.76,North,353,3.6,3.6,42,0.00,,---,0.00,VWS V14.01,2013-11-26 18:26:00,
2013-11-26 10:31:00,30.2,9.9,27.76,North,353,3.6,3.6,42,0.00,,---,0.00,VWS V14.01,2013-11-26 18:31:00,
2013-11-26 10:36:00,30.7,10.4,27.76,North,353,3.6,3.6,42,0.00,,---,0.00,VWS V14.01,2013-11-26 18:36:00,
2013-11-26 10:41:00,31.1,10.2,27.76,North,353,3.6,3.6,41,0.00,,---,0.00,VWS V14.01,2013-11-26 18:41:00,
2013-11-26 10:46:00,31.5,10.5,27.76,North,353,3.6,3.6,41,0.00,,---,0.00,VWS V14.01,2013-11-26 18:46:00,
2013-11-26 10:51:00,32.0,11.0,27.76,North,353,3.6,3.6,41,0.00,,---,0.00,VWS V14.01,2013-11-26 18:51:00,
2013-11-26 10:56:00,32.4,11.3,27.76,North,353,3.6,3.6,41,0.00,,---,0.00,VWS V14.01,2013-11-26 18:56:00,
2013-11-26 11:01:00,32.7,11.6,27.76,North,353,3.6,3.6,41,0.00,,---,0.00,VWS V14.01,2013-11-26 19:01:00,
2013-11-26 11:06:00,32.9,11.2,27.76,North,353,3.6,3.6,40,0.00,,---,0.00,VWS V14.01,2013-11-26 19:06:00,
2013-11-26 11:11:00,33.3,11.6,27.76,North,353,3.6,3.6,40,0.00,,---,0.00,VWS V14.01,2013-11-26 19:11:00,
2013-11-26 11:16:00,33.6,11.3,27.76,North,353,3.6,3.6,39,0.00,,---,0.00,VWS V14.01,2013-11-26 19:16:00,
2013-11-26 11:21:00,34.0,11.1,27.76,North,353,3.6,3.6,38,0.00,,---,0.00,VWS V14.01,2013-11-26 19:21:00,
2013-11-26 11:26:00,34.3,10.2,27.76,North,353,3.6,3.6,36,0.00,,---,0.00,VWS V14.01,2013-11-26 19:26:00,
2013-11-26 11:31:00,34.9,10.0,27.76,North,353,3.6,3.6,35,0.00,,---,0.00,VWS V14.01,2013-11-26 19:31:00,
2013-11-26 11:36:00,35.1,9.5,27.76,North,353,3.6,3.6,34,0.00,,---,0.00,VWS V14.01,2013-11-26 19:36:00,
2013-11-26 11:41:00,35.1,8.9,27.76,North,353,3.6,3.6,33,0.00,,---,0.00,VWS V14.01,2013-11-26 19:41:00,
2013-11-26 11:46:00,35.4,9.2,27.73,North,353,3.6,3.6,33,0.00,,---,0.00,VWS V14.01,2013-11-26 19:46:00,
2013-11-26 11:51:00,35.4,8.5,27.73,North,353,3.6,3.6,32,0.00,,---,0.00,VWS V14.01,2013-11-26 19:51:00,
2013-11-26 11:56:00,35.6,8.0,27.73,North,353,3.6,3.6,31,0.00,,---,0.00,VWS V14.01,2013-11-26 19:56:00,
2013-11-26 12:01:00,35.8,8.1,27.73,North,353,3.6,3.6,31,0.00,,---,0.00,VWS V14.01,2013-11-26 20:01:00,
2013-11-26 12:06:00,36.0,8.3,27.73,North,353,3.6,3.6,31,0.00,,---,0.00,VWS V14.01,2013-11-26 20:06:00,
2013-11-26 12:11:00,36.1,8.4,27.73,North,353,3.6,3.6,31,0.00,,---,0.00,VWS V14.01,2013-11-26 20:11:00,
2013-11-26 12:16:00,36.1,7.7,27.73,North,353,3.6,3.6,30,0.00,,---,0.00,VWS V14.01,2013-11-26 20:16:00,
2013-11-26 12:21:00,36.3,7.9,27.73,North,353,3.6,3.6,30,0.00,,---,0.00,VWS V14.01,2013-11-26 20:21:00,
2013-11-26 12:26:00,36.5,8.0,27.73,North,353,3.6,3.6,30,0.00,,---,0.00,VWS V14.01,2013-11-26 20:26:00,
2013-11-26 12:31:00,36.7,8.2,27.73,North,353,3.6,3.6,30,0.00,,---,0.00,VWS V14.01,2013-11-26 20:31:00,
2013-11-26 12:36:00,36.9,8.3,27.73,North,353,3.6,3.6,30,0.00,,---,0.00,VWS V14.01,2013-11-26 20:36:00,
2013-11-26 12:41:00,36.9,8.3,27.73,North,353,3.6,3.6,30,0.00,,---,0.00,VWS V14.01,2013-11-26 20:41:00,
2013-11-26 12:46:00,37.0,7.8,27.73,North,353,3.6,3.6,29,0.00,,---,0.00,VWS V14.01,2013-11-26 20:46:00,
2013-11-26 12:51:00,37.2,8.6,27.73,North,353,3.6,3.6,30,0.00,,---,0.00,VWS V14.01,2013-11-26 20:51:00,
2013-11-26 12:56:00,37.4,8.1,27.73,North,353,3.6,3.6,29,0.00,,---,0.00,VWS V14.01,2013-11-26 20:56:00,
2013-11-26 13:01:00,37.6,8.2,27.70,North,353,3.6,3.6,29,0.00,,---,0.00,VWS V14.01,2013-11-26 21:01:00,
2013-11-26 13:06:00,37.6,8.2,27.70,North,353,3.6,3.6,29,0.00,,---,0.00,VWS V14.01,2013-11-26 21:06:00,
2013-11-26 13:11:00,37.8,8.4,27.70,North,353,3.6,3.6,29,0.00,,---,0.00,VWS V14.01,2013-11-26 21:11:00,
2013-11-26 13:16:00,37.9,8.5,27.70,North,353,3.6,3.6,29,0.00,,---,0.00,VWS V14.01,2013-11-26 21:16:00,
2013-11-26 13:21:00,37.9,8.5,27.70,North,353,3.6,3.6,29,0.00,,---,0.00,VWS V14.01,2013-11-26 21:21:00,
2013-11-26 13:26:00,37.9,8.5,27.70,North,353,3.6,3.6,29,0.00,,---,0.00,VWS V14.01,2013-11-26 21:26:00,
2013-11-26 13:31:00,37.9,8.5,27.70,North,353,3.6,3.6,29,0.00,,---,0.00,VWS V14.01,2013-11-26 21:31:00,
2013-11-26 13:36:00,38.1,8.7,27.70,North,353,3.6,3.6,29,0.00,,---,0.00,VWS V14.01,2013-11-26 21:36:00,
2013-11-26 13:41:00,38.1,8.7,27.70,North,353,3.6,3.6,29,0.00,,---,0.00,VWS V14.01,2013-11-26 21:41:00,
2013-11-26 13:46:00,38.1,8.7,27.70,North,353,3.6,3.6,29,0.00,,---,0.00,VWS V14.01,2013-11-26 21:46:00,
2013-11-26 13:51:00,38.3,8.8,27.70,North,353,3.6,3.6,29,0.00,,---,0.00,VWS V14.01,2013-11-26 21:51:00,
2013-11-26 13:56:00,38.3,8.8,27.70,North,353,3.6,3.6,29,0.00,,---,0.00,VWS V14.01,2013-11-26 21:56:00,
2013-11-26 14:01:00,38.3,8.8,27.70,North,353,3.6,3.6,29,0.00,,---,0.00,VWS V14.01,2013-11-26 22:01:00,
2013-11-26 14:06:00,38.5,9.0,27.70,North,353,3.6,3.6,29,0.00,,---,0.00,VWS V14.01,2013-11-26 22:06:00,
2013-11-26 14:11:00,38.3,8.8,27.70,North,353,3.6,3.6,29,0.00,,---,0.00,VWS V14.01,2013-11-26 22:11:00,
2013-11-26 14:16:00,38.3,6.4,27.70,North,353,3.6,3.6,26,0.00,,---,0.00,VWS V14.01,2013-11-26 22:16:00,
2013-11-26 14:21:00,38.1,6.3,27.70,North,353,3.6,3.6,26,0.00,,---,0.00,VWS V14.01,2013-11-26 22:21:00,
2013-11-26 14:26:00,38.1,6.3,27.70,North,353,3.6,3.6,26,0.00,,---,0.00,VWS V14.01,2013-11-26 22:26:00,
2013-11-26 14:31:00,38.1,6.3,27.70,North,353,3.6,3.6,26,0.00,,---,0.00,VWS V14.01,2013-11-26 22:31:00,
2013-11-26 14:36:00,37.9,6.1,27.70,North,353,3.6,3.6,26,0.00,,---,0.00,VWS V14.01,2013-11-26 22:36:00,
2013-11-26 14:41:00,37.9,6.1,27.70,North,353,3.6,3.6,26,0.00,,---,0.00,VWS V14.01,2013-11-26 22:41:00,
2013-11-26 14:46:00,37.9,6.1,27.70,North,353,3.6,3.6,26,0.00,,---,0.00,VWS V14.01,2013-11-26 22:46:00,
2013-11-26 14:51:00,37.9,6.1,27.70,North,353,3.6,3.6,26,0.00,,---,0.00,VWS V14.01,2013-11-26 22:51:00,
2013-11-26 14:56:00,37.9,6.1,27.70,North,353,3.6,3.6,26,0.00,,---,0.00,VWS V14.01,2013-11-26 22:56:00,
2013-11-26 15:01:00,37.8,6.0,27.70,North,353,3.6,3.6,26,0.00,,---,0.00,VWS V14.01,2013-11-26 23:01:00,
2013-11-26 15:06:00,37.6,5.8,27.70,North,353,3.6,3.6,26,0.00,,---,0.00,VWS V14.01,2013-11-26 23:06:00,
2013-11-26 15:11:00,37.4,5.7,27.70,North,353,3.6,3.6,26,0.00,,---,0.00,VWS V14.01,2013-11-26 23:11:00,
2013-11-26 15:16:00,37.2,6.3,27.70,North,353,3.6,3.6,27,0.00,,---,0.00,VWS V14.01,2013-11-26 23:16:00,
2013-11-26 15:21:00,37.0,6.2,27.70,North,353,3.6,3.6,27,0.00,,---,0.00,VWS V14.01,2013-11-26 23:21:00,
2013-11-26 15:26:00,36.7,5.9,27.70,North,353,3.6,3.6,27,0.00,,---,0.00,VWS V14.01,2013-11-26 23:26:00,
2013-11-26 15:31:00,36.5,5.7,27.67,North,353,3.6,3.6,27,0.00,,---,0.00,VWS V14.01,2013-11-26 23:31:00,
2013-11-26 15:36:00,36.1,5.4,27.67,North,353,3.6,3.6,27,0.00,,---,0.00,VWS V14.01,2013-11-26 23:36:00,
2013-11-26 15:41:00,35.6,4.9,27.67,North,353,3.6,3.6,27,0.00,,---,0.00,VWS V14.01,2013-11-26 23:41:00,
2013-11-26 15:46:00,35.2,4.6,27.70,North,353,3.6,3.6,27,0.00,,---,0.00,VWS V14.01,2013-11-26 23:46:00,
2013-11-26 15:51:00,34.7,6.4,27.70,North,353,3.6,3.6,30,0.00,,---,0.00,VWS V14.01,2013-11-26 23:51:00,
2013-11-26 15:56:00,34.3,6.1,27.70,North,353,3.6,3.6,30,0.00,,---,0.00,VWS V14.01,2013-11-26 23:56:00,
2013-11-26 16:01:00,34.0,5.8,27.67,North,353,3.6,3.6,30,0.00,,---,0.00,VWS V14.01,2013-11-27 00:01:00,
2013-11-26 16:06:00,33.8,5.7,27.67,North,353,3.6,3.6,30,0.00,,---,0.00,VWS V14.01,2013-11-27 00:06:00,
2013-11-26 16:11:00,33.6,5.5,27.67,North,353,3.6,3.6,30,0.00,,---,0.00,VWS V14.01,2013-11-27 00:11:00,
2013-11-26 16:16:00,33.4,5.3,27.67,North,353,3.6,3.6,30,0.00,,---,0.00,VWS V14.01,2013-11-27 00:16:00,
2013-11-26 16:21:00,33.1,5.0,27.67,North,353,3.6,3.6,30,0.00,,---,0.00,VWS V14.01,2013-11-27 00:21:00,
2013-11-26 16:26:00,32.9,4.9,27.67,North,353,3.6,3.6,30,0.00,,---,0.00,VWS V14.01,2013-11-27 00:26:00,
2013-11-26 16:31:00,32.7,4.7,27.67,North,353,3.6,3.6,30,0.00,,---,0.00,VWS V14.01,2013-11-27 00:31:00,
2013-11-26 16:36:00,32.5,4.6,27.67,North,353,3.6,3.6,30,0.00,,---,0.00,VWS V14.01,2013-11-27 00:36:00,
2013-11-26 16:41:00,32.4,4.4,27.67,North,353,3.6,3.6,30,0.00,,---,0.00,VWS V14.01,2013-11-27 00:41:00,
2013-11-26 16:46:00,32.0,4.1,27.67,North,353,3.6,3.6,30,0.00,,---,0.00,VWS V14.01,2013-11-27 00:46:00,
2013-11-26 16:51:00,31.8,3.9,27.67,North,353,3.6,3.6,30,0.00,,---,0.00,VWS V14.01,2013-11-27 00:51:00,
2013-11-26 16:56:00,31.6,4.5,27.67,North,353,3.6,3.6,31,0.00,,---,0.00,VWS V14.01,2013-11-27 00:56:00,
2013-11-26 17:01:00,31.6,4.5,27.70,North,353,3.6,3.6,31,0.00,,---,0.00,VWS V14.01,2013-11-27 01:01:00,
2013-11-26 17:06:00,31.5,4.3,27.70,North,353,3.6,3.6,31,0.00,,---,0.00,VWS V14.01,2013-11-27 01:06:00,
2013-11-26 17:11:00,31.3,4.2,27.70,North,353,3.6,3.6,31,0.00,,---,0.00,VWS V14.01,2013-11-27 01:11:00,
2013-11-26 17:16:00,31.3,4.2,27.70,North,353,3.6,3.6,31,0.00,,---,0.00,VWS V14.01,2013-11-27 01:16:00,
2013-11-26 17:21:00,31.1,4.0,27.70,North,353,3.6,3.6,31,0.00,,---,0.00,VWS V14.01,2013-11-27 01:21:00,
2013-11-26 17:26:00,31.3,4.2,27.70,North,353,3.6,3.6,31,0.00,,---,0.00,VWS V14.01,2013-11-27 01:26:00,
2013-11-26 17:31:00,31.3,4.2,27.67,North,353,3.6,3.6,31,0.00,,---,0.00,VWS V14.01,2013-11-27 01:31:00,
2013-11-26 17:36:00,31.3,4.2,27.67,North,353,3.6,3.6,31,0.00,,---,0.00,VWS V14.01,2013-11-27 01:36:00,
2013-11-26 17:41:00,31.3,4.2,27.67,North,353,3.6,3.6,31,0.00,,---,0.00,VWS V14.01,2013-11-27 01:41:00,
2013-11-26 17:46:00,31.1,4.0,27.67,North,353,3.6,3.6,31,0.00,,---,0.00,VWS V14.01,2013-11-27 01:46:00,
2013-11-26 17:51:00,31.1,4.0,27.67,North,353,3.6,3.6,31,0.00,,---,0.00,VWS V14.01,2013-11-27 01:51:00,
2013-11-26 17:56:00,30.7,3.7,27.67,North,353,3.6,3.6,31,0.00,,---,0.00,VWS V14.01,2013-11-27 01:56:00,
2013-11-26 18:01:00,30.2,3.9,27.67,North,353,3.6,3.6,32,0.00,,---,0.00,VWS V14.01,2013-11-27 02:01:00,
2013-11-26 18:06:00,30.0,3.8,27.67,North,353,3.6,3.6,32,0.00,,---,0.00,VWS V14.01,2013-11-27 02:06:00,
2013-11-26 18:11:00,29.7,3.4,27.67,North,353,3.6,3.6,32,0.00,,---,0.00,VWS V14.01,2013-11-27 02:11:00,
2013-11-26 18:16:00,29.3,3.1,27.67,North,353,3.6,3.6,32,0.00,,---,0.00,VWS V14.01,2013-11-27 02:16:00,
2013-11-26 18:21:00,28.9,2.8,27.67,North,353,3.6,3.6,32,0.00,,---,0.00,VWS V14.01,2013-11-27 02:21:00,
2013-11-26 18:26:00,28.8,2.6,27.67,North,353,3.6,3.6,32,0.00,,---,0.00,VWS V14.01,2013-11-27 02:26:00,
2013-11-26 18:31:00,28.6,2.5,27.67,North,353,3.6,3.6,32,0.00,,---,0.00,VWS V14.01,2013-11-27 02:31:00,
2013-11-26 18:36:00,28.2,2.8,27.67,North,353,3.6,3.6,33,0.00,,---,0.00,VWS V14.01,2013-11-27 02:36:00,
2013-11-26 18:41:00,28.2,2.8,27.67,North,353,3.6,3.6,33,0.00,,---,0.00,VWS V14.01,2013-11-27 02:41:00,
2013-11-26 18:46:00,28.0,2.7,27.67,North,353,3.6,3.6,33,0.00,,---,0.00,VWS V14.01,2013-11-27 02:46:00,
2013-11-26 18:51:00,28.0,2.7,27.67,North,353,3.6,3.6,33,0.00,,---,0.00,VWS V14.01,2013-11-27 02:51:00,
2013-11-26 18:56:00,27.9,2.5,27.67,North,353,3.6,3.6,33,0.00,,---,0.00,VWS V14.01,2013-11-27 02:56:00,
2013-11-26 19:01:00,27.9,2.5,27.67,North,353,3.6,3.6,33,0.00,,---,0.00,VWS V14.01,2013-11-27 03:01:00,
2013-11-26 19:06:00,27.7,2.3,27.67,North,353,3.6,3.6,33,0.00,,---,0.00,VWS V14.01,2013-11-27 03:06:00,
2013-11-26 19:11:00,27.7,3.0,27.67,North,353,3.6,3.6,34,0.00,,---,0.00,VWS V14.01,2013-11-27 03:11:00,
2013-11-26 19:16:00,27.5,2.8,27.67,North,353,3.6,3.6,34,0.00,,---,0.00,VWS V14.01,2013-11-27 03:16:00,
2013-11-26 19:21:00,27.3,2.7,27.67,North,353,3.6,3.6,34,0.00,,---,0.00,VWS V14.01,2013-11-27 03:21:00,
2013-11-26 19:26:00,27.1,2.5,27.67,North,353,3.6,3.6,34,0.00,,---,0.00,VWS V14.01,2013-11-27 03:26:00,
2013-11-26 19:31:00,27.1,2.5,27.67,North,353,3.6,3.6,34,0.00,,---,0.00,VWS V14.01,2013-11-27 03:31:00,
2013-11-26 19:36:00,27.1,3.1,27.67,North,353,3.6,3.6,35,0.00,,---,0.00,VWS V14.01,2013-11-27 03:36:00,
2013-11-26 19:41:00,27.3,3.3,27.67,North,353,3.6,3.6,35,0.00,,---,0.00,VWS V14.01,2013-11-27 03:41:00,
2013-11-26 19:46:00,27.3,3.3,27.67,North,353,3.6,3.6,35,0.00,,---,0.00,VWS V14.01,2013-11-27 03:46:00,
2013-11-26 19:51:00,27.3,3.3,27.67,North,353,3.6,3.6,35,0.00,,---,0.00,VWS V14.01,2013-11-27 03:51:00,
2013-11-26 19:56:00,27.3,3.9,27.67,North,353,3.6,3.6,36,0.00,,---,0.00,VWS V14.01,2013-11-27 03:56:00,
2013-11-26 20:01:00,27.1,3.7,27.67,North,353,3.6,3.6,36,0.00,,---,0.00,VWS V14.01,2013-11-27 04:01:00,
2013-11-26 20:06:00,27.0,3.6,27.67,North,353,3.6,3.6,36,0.00,,---,0.00,VWS V14.01,2013-11-27 04:06:00,
2013-11-26 20:11:00,27.0,3.6,27.67,North,353,3.6,3.6,36,0.00,,---,0.00,VWS V14.01,2013-11-27 04:11:00,
2013-11-26 20:16:00,26.8,3.4,27.67,North,353,3.6,3.6,36,0.00,,---,0.00,VWS V14.01,2013-11-27 04:16:00,
2013-11-26 20:21:00,26.8,3.4,27.67,North,353,3.6,3.6,36,0.00,,---,0.00,VWS V14.01,2013-11-27 04:21:00,
2013-11-26 20:26:00,26.4,3.7,27.67,North,353,3.6,3.6,37,0.00,,---,0.00,VWS V14.01,2013-11-27 04:26:00,
2013-11-26 20:31:00,26.4,3.7,27.67,North,353,3.6,3.6,37,0.00,,---,0.00,VWS V14.01,2013-11-27 04:31:00,
2013-11-26 20:36:00,26.4,4.3,27.67,North,353,3.6,3.6,38,0.00,,---,0.00,VWS V14.01,2013-11-27 04:36:00,
2013-11-26 20:41:00,26.4,4.8,27.67,North,353,3.6,3.6,39,0.00,,---,0.00,VWS V14.01,2013-11-27 04:41:00,
2013-11-26 20:46:00,26.2,4.7,27.67,North,353,3.6,3.6,39,0.00,,---,0.00,VWS V14.01,2013-11-27 04:46:00,
2013-11-26 20:51:00,26.1,4.5,27.67,North,353,3.6,3.6,39,0.00,,---,0.00,VWS V14.01,2013-11-27 04:51:00,
2013-11-26 20:56:00,26.1,4.5,27.67,North,353,3.6,3.6,39,0.00,,---,0.00,VWS V14.01,2013-11-27 04:56:00,
2013-11-26 21:01:00,25.9,4.3,27.67,North,353,3.6,3.6,39,0.00,,---,0.00,VWS V14.01,2013-11-27 05:01:00,
2013-11-26 21:06:00,25.7,4.2,27.67,North,353,3.6,3.6,39,0.00,,---,0.00,VWS V14.01,2013-11-27 05:06:00,
2013-11-26 21:11:00,25.5,4.0,27.67,North,353,3.6,3.6,39,0.00,,---,0.00,VWS V14.01,2013-11-27 05:11:00,
2013-11-26 21:16:00,25.5,4.0,27.67,North,353,3.6,3.6,39,0.00,,---,0.00,VWS V14.01,2013-11-27 05:16:00,
2013-11-26 21:21:00,25.3,3.9,27.67,North,353,3.6,3.6,39,0.00,,---,0.00,VWS V14.01,2013-11-27 05:21:00,
2013-11-26 21:26:00,25.3,3.9,27.67,North,353,3.6,3.6,39,0.00,,---,0.00,VWS V14.01,2013-11-27 05:26:00,
2013-11-26 21:31:00,25.3,3.9,27.67,North,353,3.6,3.6,39,0.00,,---,0.00,VWS V14.01,2013-11-27 05:31:00,
2013-11-26 21:36:00,25.2,3.7,27.67,North,353,3.6,3.6,39,0.00,,---,0.00,VWS V14.01,2013-11-27 05:36:00,
2013-11-26 21:41:00,25.0,3.5,27.67,North,353,3.6,3.6,39,0.00,,---,0.00,VWS V14.01,2013-11-27 05:41:00,
2013-11-26 21:46:00,25.0,3.5,27.67,North,353,3.6,3.6,39,0.00,,---,0.00,VWS V14.01,2013-11-27 05:46:00,
2013-11-26 21:51:00,24.8,3.9,27.67,North,353,3.6,3.6,40,0.00,,---,0.00,VWS V14.01,2013-11-27 05:51:00,
2013-11-26 21:56:00,25.0,4.1,27.67,North,353,3.6,3.6,40,0.00,,---,0.00,VWS V14.01,2013-11-27 05:56:00,
2013-11-26 22:01:00,25.0,4.1,27.67,North,353,3.6,3.6,40,0.00,,---,0.00,VWS V14.01,2013-11-27 06:01:00,
2013-11-26 22:06:00,24.8,4.4,27.67,North,353,3.6,3.6,41,0.00,,---,0.00,VWS V14.01,2013-11-27 06:06:00,
2013-11-26 22:11:00,24.8,4.4,27.67,North,353,3.6,3.6,41,0.00,,---,0.00,VWS V14.01,2013-11-27 06:11:00,
2013-11-26 22:16:00,24.6,4.3,27.70,North,353,3.6,3.6,41,0.00,,---,0.00,VWS V14.01,2013-11-27 06:16:00,
2013-11-26 22:21:00,24.3,4.0,27.70,North,353,3.6,3.6,41,0.00,,---,0.00,VWS V14.01,2013-11-27 06:21:00,
2013-11-26 22:26:00,24.3,4.0,27.70,North,353,3.6,3.6,41,0.00,,---,0.00,VWS V14.01,2013-11-27 06:26:00,
2013-11-26 22:31:00,24.3,4.5,27.67,North,353,3.6,3.6,42,0.00,,---,0.00,VWS V14.01,2013-11-27 06:31:00,
2013-11-26 22:36:00,24.1,4.3,27.67,North,353,3.6,3.6,42,0.00,,---,0.00,VWS V14.01,2013-11-27 06:36:00,
2013-11-26 22:41:00,24.1,4.3,27.67,North,353,3.6,3.6,42,0.00,,---,0.00,VWS V14.01,2013-11-27 06:41:00,
2013-11-26 22:46:00,23.9,4.2,27.70,North,353,3.6,3.6,42,0.00,,---,0.00,VWS V14.01,2013-11-27 06:46:00,
2013-11-26 22:51:00,23.7,4.0,27.70,North,353,3.6,3.6,42,0.00,,---,0.00,VWS V14.01,2013-11-27 06:51:00,
2013-11-26 22:56:00,23.5,3.8,27.70,North,353,3.6,3.6,42,0.00,,---,0.00,VWS V14.01,2013-11-27 06:56:00,
2013-11-26 23:01:00,23.5,3.8,27.67,North,353,3.6,3.6,42,0.00,,---,0.00,VWS V14.01,2013-11-27 07:01:00,
2013-11-26 23:06:00,23.5,3.8,27.67,North,353,3.6,3.6,42,0.00,,---,0.00,VWS V14.01,2013-11-27 07:06:00,
2013-11-26 23:11:00,23.5,3.8,27.67,North,353,3.6,3.6,42,0.00,,---,0.00,VWS V14.01,2013-11-27 07:11:00,
2013-11-26 23:16:00,23.5,3.8,27.67,North,353,3.6,3.6,42,0.00,,---,0.00,VWS V14.01,2013-11-27 07:16:00,
2013-11-26 23:21:00,23.5,3.8,27.67,North,353,3.6,3.6,42,0.00,,---,0.00,VWS V14.01,2013-11-27 07:21:00,
2013-11-26 23:26:00,23.4,3.7,27.67,North,353,3.6,3.6,42,0.00,,---,0.00,VWS V14.01,2013-11-27 07:26:00,
2013-11-26 23:31:00,23.4,3.7,27.70,North,353,3.6,3.6,42,0.00,,---,0.00,VWS V14.01,2013-11-27 07:31:00,
2013-11-26 23:36:00,23.2,3.5,27.70,North,353,3.6,3.6,42,0.00,,---,0.00,VWS V14.01,2013-11-27 07:36:00,
2013-11-26 23:41:00,23.2,3.5,27.70,North,353,3.6,3.6,42,0.00,,---,0.00,VWS V14.01,2013-11-27 07:41:00,
2013-11-26 23:46:00,23.2,3.5,27.67,North,353,3.6,3.6,42,0.00,,---,0.00,VWS V14.01,2013-11-27 07:46:00,
2013-11-26 23:51:00,23.5,3.8,27.67,North,353,3.6,3.6,42,0.00,,---,0.00,VWS V14.01,2013-11-27 07:51:00,
2013-11-26 23:56:00,23.5,3.8,27.67,North,353,3.6,3.6,42,0.00,,---,0.00,VWS V14.01,2013-11-27 07:56:00,